sensor_id;sensor_type;location;lat;lon;timestamp;pressure;altitude;pressure_sealevel;temperature
70819;BMP280;58439;51.046;13.692;2023-04-22T00:01:39;99820.81;;;9.49
70819;BMP280;58439;51.046;13.692;2023-04-22T00:04:06;99820.31;;;9.39
70819;BMP280;58439;51.046;13.692;2023-04-22T00:06:34;99821.63;;;9.28
70819;BMP280;58439;51.046;13.692;2023-04-22T00:09:02;99823.00;;;9.24
70819;BMP280;58439;51.046;13.692;2023-04-22T00:11:29;99813.75;;;9.22
70819;BMP280;58439;51.046;13.692;2023-04-22T00:13:56;99821.75;;;9.20
70819;BMP280;58439;51.046;13.692;2023-04-22T00:16:27;99821.16;;;9.18
70819;BMP280;58439;51.046;13.692;2023-04-22T00:18:54;99815.88;;;9.12
70819;BMP280;58439;51.046;13.692;2023-04-22T00:21:21;99812.59;;;9.03
70819;BMP280;58439;51.046;13.692;2023-04-22T00:23:55;99807.28;;;8.96
70819;BMP280;58439;51.046;13.692;2023-04-22T00:26:31;99802.06;;;8.96
70819;BMP280;58439;51.046;13.692;2023-04-22T00:28:58;99808.06;;;8.97
70819;BMP280;58439;51.046;13.692;2023-04-22T00:31:25;99809.31;;;8.94
70819;BMP280;58439;51.046;13.692;2023-04-22T00:33:53;99807.84;;;8.92
70819;BMP280;58439;51.046;13.692;2023-04-22T00:36:37;99797.16;;;8.87
70819;BMP280;58439;51.046;13.692;2023-04-22T00:39:28;99799.50;;;8.81
70819;BMP280;58439;51.046;13.692;2023-04-22T00:41:56;99807.06;;;8.76
70819;BMP280;58439;51.046;13.692;2023-04-22T00:44:24;99798.03;;;8.72
70819;BMP280;58439;51.046;13.692;2023-04-22T00:46:52;99796.56;;;8.70
70819;BMP280;58439;51.046;13.692;2023-04-22T00:49:19;99800.97;;;8.69
70819;BMP280;58439;51.046;13.692;2023-04-22T00:51:46;99796.97;;;8.67
70819;BMP280;58439;51.046;13.692;2023-04-22T00:54:13;99792.94;;;8.64
70819;BMP280;58439;51.046;13.692;2023-04-22T00:56:45;99794.88;;;8.62
70819;BMP280;58439;51.046;13.692;2023-04-22T01:03:36;99793.63;;;8.58
70819;BMP280;58439;51.046;13.692;2023-04-22T01:06:19;99788.19;;;8.53
70819;BMP280;58439;51.046;13.692;2023-04-22T01:08:50;99795.19;;;8.52
70819;BMP280;58439;51.046;13.692;2023-04-22T01:11:18;99787.19;;;8.54
70819;BMP280;58439;51.046;13.692;2023-04-22T01:13:45;99786.94;;;8.49
70819;BMP280;58439;51.046;13.692;2023-04-22T01:16:22;99788.09;;;8.46
70819;BMP280;58439;51.046;13.692;2023-04-22T01:18:50;99785.69;;;8.45
70819;BMP280;58439;51.046;13.692;2023-04-22T01:21:18;99783.09;;;8.45
70819;BMP280;58439;51.046;13.692;2023-04-22T01:23:46;99781.28;;;8.45
70819;BMP280;58439;51.046;13.692;2023-04-22T01:26:13;99781.28;;;8.45
70819;BMP280;58439;51.046;13.692;2023-04-22T01:28:40;99776.88;;;8.46
70819;BMP280;58439;51.046;13.692;2023-04-22T01:31:08;99777.63;;;8.40
70819;BMP280;58439;51.046;13.692;2023-04-22T01:33:38;99782.19;;;8.38
70819;BMP280;58439;51.046;13.692;2023-04-22T01:36:05;99776.91;;;8.31
70819;BMP280;58439;51.046;13.692;2023-04-22T01:38:33;99774.81;;;8.26
70819;BMP280;58439;51.046;13.692;2023-04-22T01:41:01;99780.78;;;8.20
70819;BMP280;58439;51.046;13.692;2023-04-22T01:43:30;99773.78;;;8.21
70819;BMP280;58439;51.046;13.692;2023-04-22T01:45:59;99778.91;;;8.14
70819;BMP280;58439;51.046;13.692;2023-04-22T01:48:27;99772.44;;;8.10
70819;BMP280;58439;51.046;13.692;2023-04-22T01:50:55;99770.81;;;8.09
70819;BMP280;58439;51.046;13.692;2023-04-22T01:53:22;99771.34;;;8.05
70819;BMP280;58439;51.046;13.692;2023-04-22T01:55:52;99773.78;;;8.06
70819;BMP280;58439;51.046;13.692;2023-04-22T01:58:19;99771.00;;;8.08
70819;BMP280;58439;51.046;13.692;2023-04-22T02:00:46;99766.59;;;8.08
70819;BMP280;58439;51.046;13.692;2023-04-22T02:03:13;99765.34;;;8.04
70819;BMP280;58439;51.046;13.692;2023-04-22T02:05:42;99769.78;;;8.04
70819;BMP280;58439;51.046;13.692;2023-04-22T02:08:09;99768.50;;;7.99
70819;BMP280;58439;51.046;13.692;2023-04-22T02:10:36;99765.59;;;7.94
70819;BMP280;58439;51.046;13.692;2023-04-22T02:13:03;99760.59;;;7.93
70819;BMP280;58439;51.046;13.692;2023-04-22T02:15:30;99762.47;;;7.99
70819;BMP280;58439;51.046;13.692;2023-04-22T02:17:57;99754.50;;;8.00
70819;BMP280;58439;51.046;13.692;2023-04-22T02:20:25;99762.47;;;7.99
70819;BMP280;58439;51.046;13.692;2023-04-22T02:22:52;99759.81;;;7.92
70819;BMP280;58439;51.046;13.692;2023-04-22T02:25:19;99760.69;;;7.85
70819;BMP280;58439;51.046;13.692;2023-04-22T02:27:48;99753.78;;;7.77
70819;BMP280;58439;51.046;13.692;2023-04-22T02:30:16;99752.25;;;7.68
70819;BMP280;58439;51.046;13.692;2023-04-22T02:32:43;99755.72;;;7.60
70819;BMP280;58439;51.046;13.692;2023-04-22T02:35:20;99749.91;;;7.58
70819;BMP280;58439;51.046;13.692;2023-04-22T02:38:12;99741.28;;;7.58
70819;BMP280;58439;51.046;13.692;2023-04-22T02:40:43;99751.47;;;7.59
70819;BMP280;58439;51.046;13.692;2023-04-22T02:43:11;99749.09;;;7.58
70819;BMP280;58439;51.046;13.692;2023-04-22T02:45:38;99746.28;;;7.59
70819;BMP280;58439;51.046;13.692;2023-04-22T02:48:07;99746.69;;;7.56
70819;BMP280;58439;51.046;13.692;2023-04-22T02:50:35;99745.88;;;7.56
70819;BMP280;58439;51.046;13.692;2023-04-22T02:53:02;99750.25;;;7.55
70819;BMP280;58439;51.046;13.692;2023-04-22T02:55:33;99748.00;;;7.52
70819;BMP280;58439;51.046;13.692;2023-04-22T02:58:04;99750.50;;;7.45
70819;BMP280;58439;51.046;13.692;2023-04-22T03:00:31;99746.34;;;7.36
70819;BMP280;58439;51.046;13.692;2023-04-22T03:02:59;99747.25;;;7.29
70819;BMP280;58439;51.046;13.692;2023-04-22T03:05:31;99741.56;;;7.25
70819;BMP280;58439;51.046;13.692;2023-04-22T03:08:00;99747.31;;;7.21
70819;BMP280;58439;51.046;13.692;2023-04-22T03:10:28;99738.88;;;7.18
70819;BMP280;58439;51.046;13.692;2023-04-22T03:12:55;99738.06;;;7.18
70819;BMP280;58439;51.046;13.692;2023-04-22T03:15:22;99732.06;;;7.17
70819;BMP280;58439;51.046;13.692;2023-04-22T03:17:50;99732.69;;;7.19
70819;BMP280;58439;51.046;13.692;2023-04-22T03:20:19;99733.03;;;7.16
70819;BMP280;58439;51.046;13.692;2023-04-22T03:22:46;99734.00;;;7.15
70819;BMP280;58439;51.046;13.692;2023-04-22T03:25:15;99725.25;;;7.16
70819;BMP280;58439;51.046;13.692;2023-04-22T03:27:48;99732.56;;;7.13
70819;BMP280;58439;51.046;13.692;2023-04-22T03:30:15;99726.56;;;7.12
70819;BMP280;58439;51.046;13.692;2023-04-22T03:32:42;99722.19;;;7.13
70819;BMP280;58439;51.046;13.692;2023-04-22T03:35:19;99730.34;;;7.10
70819;BMP280;58439;51.046;13.692;2023-04-22T03:37:49;99731.66;;;7.06
70819;BMP280;58439;51.046;13.692;2023-04-22T03:40:21;99728.16;;;6.99
70819;BMP280;58439;51.046;13.692;2023-04-22T03:42:48;99735.66;;;6.93
70819;BMP280;58439;51.046;13.692;2023-04-22T03:45:18;99737.78;;;6.90
70819;BMP280;58439;51.046;13.692;2023-04-22T03:47:52;99731.94;;;6.88
70819;BMP280;58439;51.046;13.692;2023-04-22T03:50:25;99739.72;;;6.88
70819;BMP280;58439;51.046;13.692;2023-04-22T03:52:57;99732.78;;;6.88
70819;BMP280;58439;51.046;13.692;2023-04-22T03:55:25;99730.88;;;6.82
70819;BMP280;58439;51.046;13.692;2023-04-22T03:57:53;99729.88;;;6.83
70819;BMP280;58439;51.046;13.692;2023-04-22T04:00:20;99724.78;;;6.90
70819;BMP280;58439;51.046;13.692;2023-04-22T04:03:00;99728.97;;;6.99
70819;BMP280;58439;51.046;13.692;2023-04-22T04:05:42;99730.19;;;7.03
70819;BMP280;58439;51.046;13.692;2023-04-22T04:08:20;99729.53;;;7.09
70819;BMP280;58439;51.046;13.692;2023-04-22T04:10:47;99731.66;;;7.06
70819;BMP280;58439;51.046;13.692;2023-04-22T04:13:15;99728.06;;;7.07
70819;BMP280;58439;51.046;13.692;2023-04-22T04:15:52;99724.34;;;7.09
70819;BMP280;58439;51.046;13.692;2023-04-22T04:18:19;99725.94;;;7.10
70819;BMP280;58439;51.046;13.692;2023-04-22T04:20:48;99730.25;;;7.18
70819;BMP280;58439;51.046;13.692;2023-04-22T04:23:16;99723.38;;;7.25
70819;BMP280;58439;51.046;13.692;2023-04-22T04:25:44;99719.25;;;7.31
70819;BMP280;58439;51.046;13.692;2023-04-22T04:28:13;99722.31;;;7.34
70819;BMP280;58439;51.046;13.692;2023-04-22T04:30:40;99726.91;;;7.47
70819;BMP280;58439;51.046;13.692;2023-04-22T04:33:07;99724.41;;;7.54
70819;BMP280;58439;51.046;13.692;2023-04-22T04:35:38;99726.09;;;7.61
70819;BMP280;58439;51.046;13.692;2023-04-22T04:38:09;99725.25;;;7.69
70819;BMP280;58439;51.046;13.692;2023-04-22T04:40:53;99718.31;;;7.76
70819;BMP280;58439;51.046;13.692;2023-04-22T04:43:25;99721.81;;;7.83
70819;BMP280;58439;51.046;13.692;2023-04-22T04:46:08;99723.13;;;7.94
70819;BMP280;58439;51.046;13.692;2023-04-22T04:48:39;99725.50;;;8.04
70819;BMP280;58439;51.046;13.692;2023-04-22T04:51:08;99733.00;;;8.13
70819;BMP280;58439;51.046;13.692;2023-04-22T04:53:41;99725.50;;;8.25
70819;BMP280;58439;51.046;13.692;2023-04-22T04:56:09;99725.25;;;8.35
70819;BMP280;58439;51.046;13.692;2023-04-22T04:58:39;99735.38;;;8.44
70819;BMP280;58439;51.046;13.692;2023-04-22T05:01:15;99729.84;;;8.54
70819;BMP280;58439;51.046;13.692;2023-04-22T05:03:44;99732.16;;;8.64
70819;BMP280;58439;51.046;13.692;2023-04-22T05:06:20;99731.22;;;8.71
70819;BMP280;58439;51.046;13.692;2023-04-22T05:08:53;99731.09;;;8.79
70819;BMP280;58439;51.046;13.692;2023-04-22T05:11:20;99735.81;;;8.91
70819;BMP280;58439;51.046;13.692;2023-04-22T05:13:49;99729.03;;;8.96
70819;BMP280;58439;51.046;13.692;2023-04-22T05:16:23;99728.91;;;9.04
70819;BMP280;58439;51.046;13.692;2023-04-22T05:18:50;99738.03;;;9.15
70819;BMP280;58439;51.046;13.692;2023-04-22T05:21:18;99744.34;;;9.27
70819;BMP280;58439;51.046;13.692;2023-04-22T05:23:46;99743.66;;;9.47
70819;BMP280;58439;51.046;13.692;2023-04-22T05:26:13;99741.97;;;9.67
70819;BMP280;58439;51.046;13.692;2023-04-22T05:28:44;99748.31;;;9.92
70819;BMP280;58439;51.046;13.692;2023-04-22T05:31:11;99748.81;;;10.09
70819;BMP280;58439;51.046;13.692;2023-04-22T05:33:38;99748.44;;;10.26
70819;BMP280;58439;51.046;13.692;2023-04-22T05:36:05;99740.44;;;10.40
70819;BMP280;58439;51.046;13.692;2023-04-22T05:38:34;99743.69;;;10.56
70819;BMP280;58439;51.046;13.692;2023-04-22T05:41:01;99742.13;;;10.68
70819;BMP280;58439;51.046;13.692;2023-04-22T05:43:28;99744.13;;;10.79
70819;BMP280;58439;51.046;13.692;2023-04-22T05:46:16;99745.13;;;10.91
70819;BMP280;58439;51.046;13.692;2023-04-22T05:48:45;99747.94;;;11.03
70819;BMP280;58439;51.046;13.692;2023-04-22T05:51:34;99750.75;;;11.15
70819;BMP280;58439;51.046;13.692;2023-04-22T05:54:02;99750.34;;;11.24
70819;BMP280;58439;51.046;13.692;2023-04-22T05:56:29;99750.94;;;11.33
70819;BMP280;58439;51.046;13.692;2023-04-22T05:59:06;99754.75;;;11.44
70819;BMP280;58439;51.046;13.692;2023-04-22T06:02:05;99748.91;;;11.55
70819;BMP280;58439;51.046;13.692;2023-04-22T06:04:33;99751.88;;;11.65
70819;BMP280;58439;51.046;13.692;2023-04-22T06:07:04;99745.78;;;11.78
70819;BMP280;58439;51.046;13.692;2023-04-22T06:09:30;99748.53;;;11.89
70819;BMP280;58439;51.046;13.692;2023-04-22T06:11:58;99746.50;;;11.98
70819;BMP280;58439;51.046;13.692;2023-04-22T06:14:25;99739.59;;;12.10
70819;BMP280;58439;51.046;13.692;2023-04-22T06:16:52;99749.63;;;12.20
70819;BMP280;58439;51.046;13.692;2023-04-22T06:19:20;99745.91;;;12.34
70819;BMP280;58439;51.046;13.692;2023-04-22T06:21:47;99744.22;;;12.47
70819;BMP280;58439;51.046;13.692;2023-04-22T06:24:15;99748.00;;;12.57
70819;BMP280;58439;51.046;13.692;2023-04-22T06:26:42;99748.28;;;12.67
70819;BMP280;58439;51.046;13.692;2023-04-22T06:29:09;99747.84;;;12.77
70819;BMP280;58439;51.046;13.692;2023-04-22T06:31:38;99743.31;;;12.84
70819;BMP280;58439;51.046;13.692;2023-04-22T06:34:05;99742.19;;;12.98
70819;BMP280;58439;51.046;13.692;2023-04-22T06:36:33;99740.47;;;13.11
70819;BMP280;58439;51.046;13.692;2023-04-22T06:39:04;99743.78;;;13.24
70819;BMP280;58439;51.046;13.692;2023-04-22T06:41:39;99733.91;;;13.38
70819;BMP280;58439;51.046;13.692;2023-04-22T06:44:25;99742.44;;;13.52
70819;BMP280;58439;51.046;13.692;2023-04-22T06:47:21;99739.28;;;13.62
70819;BMP280;58439;51.046;13.692;2023-04-22T06:50:00;99746.22;;;13.74
70819;BMP280;58439;51.046;13.692;2023-04-22T06:52:37;99746.50;;;13.84
70819;BMP280;58439;51.046;13.692;2023-04-22T06:55:05;99747.78;;;13.94
70819;BMP280;58439;51.046;13.692;2023-04-22T06:57:32;99748.63;;;14.06
70819;BMP280;58439;51.046;13.692;2023-04-22T06:59:59;99751.66;;;14.21
70819;BMP280;58439;51.046;13.692;2023-04-22T07:02:26;99739.34;;;14.33
70819;BMP280;58439;51.046;13.692;2023-04-22T07:04:54;99744.97;;;14.48
70819;BMP280;58439;51.046;13.692;2023-04-22T07:07:22;99747.19;;;14.63
70819;BMP280;58439;51.046;13.692;2023-04-22T07:09:50;99742.94;;;14.74
70819;BMP280;58439;51.046;13.692;2023-04-22T07:12:17;99743.16;;;14.84
70819;BMP280;58439;51.046;13.692;2023-04-22T07:14:45;99748.66;;;14.94
70819;BMP280;58439;51.046;13.692;2023-04-22T07:17:12;99740.53;;;15.07
70819;BMP280;58439;51.046;13.692;2023-04-22T07:19:40;99742.44;;;15.24
70819;BMP280;58439;51.046;13.692;2023-04-22T07:22:07;99742.50;;;15.41
70819;BMP280;58439;51.046;13.692;2023-04-22T07:24:35;99734.69;;;15.57
70819;BMP280;58439;51.046;13.692;2023-04-22T07:27:04;99736.56;;;15.74
70819;BMP280;58439;51.046;13.692;2023-04-22T07:29:31;99736.75;;;15.84
70819;BMP280;58439;51.046;13.692;2023-04-22T07:31:58;99735.25;;;15.88
70819;BMP280;58439;51.046;13.692;2023-04-22T07:34:26;99732.53;;;16.00
70819;BMP280;58439;51.046;13.692;2023-04-22T07:36:53;99726.53;;;16.04
70819;BMP280;58439;51.046;13.692;2023-04-22T07:39:25;99725.19;;;16.18
70819;BMP280;58439;51.046;13.692;2023-04-22T07:41:53;99722.25;;;16.32
70819;BMP280;58439;51.046;13.692;2023-04-22T07:44:22;99722.41;;;16.42
70819;BMP280;58439;51.046;13.692;2023-04-22T07:46:50;99712.47;;;16.49
70819;BMP280;58439;51.046;13.692;2023-04-22T07:49:17;99719.75;;;16.59
70819;BMP280;58439;51.046;13.692;2023-04-22T07:51:46;99721.75;;;16.68
70819;BMP280;58439;51.046;13.692;2023-04-22T07:54:13;99712.34;;;16.77
70819;BMP280;58439;51.046;13.692;2023-04-22T07:56:40;99722.53;;;16.91
70819;BMP280;58439;51.046;13.692;2023-04-22T07:59:08;99714.75;;;17.01
70819;BMP280;58439;51.046;13.692;2023-04-22T08:01:36;99714.94;;;17.16
70819;BMP280;58439;51.046;13.692;2023-04-22T08:04:03;99703.97;;;17.24
70819;BMP280;58439;51.046;13.692;2023-04-22T08:09:59;99710.81;;;17.47
70819;BMP280;58439;51.046;13.692;2023-04-22T08:12:26;99706.41;;;17.58
70819;BMP280;58439;51.046;13.692;2023-04-22T08:14:54;99711.84;;;17.73
70819;BMP280;58439;51.046;13.692;2023-04-22T08:17:21;99713.59;;;17.89
70819;BMP280;58439;51.046;13.692;2023-04-22T08:19:52;99695.41;;;17.98
70819;BMP280;58439;51.046;13.692;2023-04-22T08:22:19;99706.84;;;18.03
70819;BMP280;58439;51.046;13.692;2023-04-22T08:24:46;99710.59;;;18.13
70819;BMP280;58439;51.046;13.692;2023-04-22T08:27:13;99706.47;;;18.27
70819;BMP280;58439;51.046;13.692;2023-04-22T08:29:40;99704.94;;;18.36
70819;BMP280;58439;51.046;13.692;2023-04-22T08:32:08;99705.50;;;18.48
70819;BMP280;58439;51.046;13.692;2023-04-22T08:34:35;99696.59;;;18.59
70819;BMP280;58439;51.046;13.692;2023-04-22T08:37:03;99694.25;;;18.68
70819;BMP280;58439;51.046;13.692;2023-04-22T08:39:30;99691.06;;;18.71
70819;BMP280;58439;51.046;13.692;2023-04-22T08:42:00;99691.13;;;18.81
70819;BMP280;58439;51.046;13.692;2023-04-22T08:44:28;99691.72;;;18.93
70819;BMP280;58439;51.046;13.692;2023-04-22T08:46:56;99695.72;;;19.01
70819;BMP280;58439;51.046;13.692;2023-04-22T08:49:23;99699.44;;;19.10
70819;BMP280;58439;51.046;13.692;2023-04-22T08:51:53;99703.97;;;19.15
70819;BMP280;58439;51.046;13.692;2023-04-22T08:54:25;99690.97;;;19.18
70819;BMP280;58439;51.046;13.692;2023-04-22T08:56:53;99692.31;;;19.26
70819;BMP280;58439;51.046;13.692;2023-04-22T08:59:22;99693.16;;;19.37
70819;BMP280;58439;51.046;13.692;2023-04-22T09:01:52;99690.25;;;19.53
70819;BMP280;58439;51.046;13.692;2023-04-22T09:04:21;99683.34;;;19.62
70819;BMP280;58439;51.046;13.692;2023-04-22T09:06:48;99691.06;;;19.74
70819;BMP280;58439;51.046;13.692;2023-04-22T09:09:16;99678.31;;;19.86
70819;BMP280;58439;51.046;13.692;2023-04-22T09:11:43;99680.44;;;20.00
70819;BMP280;58439;51.046;13.692;2023-04-22T09:14:10;99674.06;;;20.01
70819;BMP280;58439;51.046;13.692;2023-04-22T09:16:45;99677.22;;;20.03
70819;BMP280;58439;51.046;13.692;2023-04-22T09:19:14;99661.28;;;19.98
70819;BMP280;58439;51.046;13.692;2023-04-22T09:21:41;99672.47;;;20.00
70819;BMP280;58439;51.046;13.692;2023-04-22T09:24:10;99665.50;;;20.14
70819;BMP280;58439;51.046;13.692;2023-04-22T09:26:41;99670.25;;;20.32
70819;BMP280;58439;51.046;13.692;2023-04-22T09:29:14;99666.50;;;20.43
70819;BMP280;58439;51.046;13.692;2023-04-22T09:31:41;99652.38;;;20.48
70819;BMP280;58439;51.046;13.692;2023-04-22T09:34:08;99652.13;;;20.49
70819;BMP280;58439;51.046;13.692;2023-04-22T09:36:37;99647.53;;;20.65
70819;BMP280;58439;51.046;13.692;2023-04-22T09:39:06;99655.97;;;20.77
70819;BMP280;58439;51.046;13.692;2023-04-22T09:41:37;99656.53;;;20.74
70819;BMP280;58439;51.046;13.692;2023-04-22T09:44:17;99646.69;;;20.75
70819;BMP280;58439;51.046;13.692;2023-04-22T09:46:48;99646.69;;;20.75
70819;BMP280;58439;51.046;13.692;2023-04-22T09:49:16;99634.16;;;20.80
70819;BMP280;58439;51.046;13.692;2023-04-22T09:51:44;99641.31;;;20.85
70819;BMP280;58439;51.046;13.692;2023-04-22T09:54:11;99642.03;;;20.96
70819;BMP280;58439;51.046;13.692;2023-04-22T09:56:47;99639.28;;;21.11
70819;BMP280;58439;51.046;13.692;2023-04-22T10:01:56;99627.72;;;21.31
70819;BMP280;58439;51.046;13.692;2023-04-22T10:04:23;99629.19;;;21.47
70819;BMP280;58439;51.046;13.692;2023-04-22T10:06:53;99622.31;;;21.36
70819;BMP280;58439;51.046;13.692;2023-04-22T10:09:23;99628.38;;;21.46
70819;BMP280;58439;51.046;13.692;2023-04-22T10:11:53;99631.50;;;21.53
70819;BMP280;58439;51.046;13.692;2023-04-22T10:14:22;99621.47;;;21.74
70819;BMP280;58439;51.046;13.692;2023-04-22T10:16:57;99619.47;;;21.61
70819;BMP280;58439;51.046;13.692;2023-04-22T10:19:29;99626.41;;;21.57
70819;BMP280;58439;51.046;13.692;2023-04-22T10:22:03;99627.53;;;21.51
70819;BMP280;58439;51.046;13.692;2023-04-22T10:24:35;99612.34;;;21.51
70819;BMP280;58439;51.046;13.692;2023-04-22T10:27:04;99619.38;;;21.71
70819;BMP280;58439;51.046;13.692;2023-04-22T10:29:37;99612.97;;;21.72
70819;BMP280;58439;51.046;13.692;2023-04-22T10:34:36;99615.44;;;21.87
70819;BMP280;58439;51.046;13.692;2023-04-22T10:37:12;99621.19;;;22.00
70819;BMP280;58439;51.046;13.692;2023-04-22T10:39:42;99603.56;;;22.04
70819;BMP280;58439;51.046;13.692;2023-04-22T10:42:29;99613.88;;;22.10
70819;BMP280;58439;51.046;13.692;2023-04-22T10:45:01;99615.81;;;22.05
70819;BMP280;58439;51.046;13.692;2023-04-22T10:47:36;99605.00;;;22.15
70819;BMP280;58439;51.046;13.692;2023-04-22T10:50:24;99608.03;;;22.27
70819;BMP280;58439;51.046;13.692;2023-04-22T10:53:34;99606.13;;;24.45
70819;BMP280;58439;51.046;13.692;2023-04-22T10:56:15;99606.75;;;26.23
70819;BMP280;58439;51.046;13.692;2023-04-22T10:58:43;99612.94;;;27.13
70819;BMP280;58439;51.046;13.692;2023-04-22T11:01:14;99612.53;;;27.90
70819;BMP280;58439;51.046;13.692;2023-04-22T11:03:41;99606.06;;;27.91
70819;BMP280;58439;51.046;13.692;2023-04-22T11:06:20;99602.72;;;28.60
70819;BMP280;58439;51.046;13.692;2023-04-22T11:09:10;99614.75;;;29.20
70819;BMP280;58439;51.046;13.692;2023-04-22T11:11:54;99596.06;;;28.79
70819;BMP280;58439;51.046;13.692;2023-04-22T11:14:37;99604.28;;;29.07
70819;BMP280;58439;51.046;13.692;2023-04-22T11:17:06;99604.41;;;29.10
70819;BMP280;58439;51.046;13.692;2023-04-22T11:19:33;99600.31;;;29.65
70819;BMP280;58439;51.046;13.692;2023-04-22T11:22:00;99593.81;;;29.66
70819;BMP280;58439;51.046;13.692;2023-04-22T11:24:30;99596.88;;;29.92
70819;BMP280;58439;51.046;13.692;2023-04-22T11:26:57;99600.34;;;30.48
70819;BMP280;58439;51.046;13.692;2023-04-22T11:29:24;99601.00;;;30.45
70819;BMP280;58439;51.046;13.692;2023-04-22T11:31:52;99607.53;;;30.01
70819;BMP280;58439;51.046;13.692;2023-04-22T11:34:22;99602.38;;;30.67
70819;BMP280;58439;51.046;13.692;2023-04-22T11:36:49;99601.97;;;31.16
70819;BMP280;58439;51.046;13.692;2023-04-22T11:39:21;99598.41;;;30.96
70819;BMP280;58439;51.046;13.692;2023-04-22T11:41:48;99586.41;;;30.94
70819;BMP280;58439;51.046;13.692;2023-04-22T11:44:15;99588.50;;;31.35
70819;BMP280;58439;51.046;13.692;2023-04-22T11:46:43;99589.34;;;31.20
70819;BMP280;58439;51.046;13.692;2023-04-22T11:49:16;99596.91;;;31.30
70819;BMP280;58439;51.046;13.692;2023-04-22T11:52:10;99598.00;;;31.45
70819;BMP280;58439;51.046;13.692;2023-04-22T11:54:37;99589.94;;;31.29
70819;BMP280;58439;51.046;13.692;2023-04-22T11:57:07;99584.19;;;31.15
70819;BMP280;58439;51.046;13.692;2023-04-22T11:59:35;99581.28;;;31.23
70819;BMP280;58439;51.046;13.692;2023-04-22T12:02:06;99587.69;;;31.50
70819;BMP280;58439;51.046;13.692;2023-04-22T12:04:40;99574.84;;;30.62
70819;BMP280;58439;51.046;13.692;2023-04-22T12:07:08;99580.75;;;30.51
70819;BMP280;58439;51.046;13.692;2023-04-22T12:09:35;99583.72;;;30.62
70819;BMP280;58439;51.046;13.692;2023-04-22T12:12:03;99584.13;;;30.96
70819;BMP280;58439;51.046;13.692;2023-04-22T12:14:34;99571.94;;;30.70
70819;BMP280;58439;51.046;13.692;2023-04-22T12:17:08;99577.69;;;31.00
70819;BMP280;58439;51.046;13.692;2023-04-22T12:19:36;99568.00;;;30.99
70819;BMP280;58439;51.046;13.692;2023-04-22T12:22:03;99557.31;;;30.56
70819;BMP280;58439;51.046;13.692;2023-04-22T12:24:30;99563.78;;;30.67
70819;BMP280;58439;51.046;13.692;2023-04-22T12:26:57;99559.66;;;30.57
70819;BMP280;58439;51.046;13.692;2023-04-22T12:29:32;99563.75;;;30.51
70819;BMP280;58439;51.046;13.692;2023-04-22T12:32:00;99561.25;;;30.90
70819;BMP280;58439;51.046;13.692;2023-04-22T12:34:27;99561.56;;;30.88
70819;BMP280;58439;51.046;13.692;2023-04-22T12:36:54;99565.41;;;31.03
70819;BMP280;58439;51.046;13.692;2023-04-22T12:39:22;99558.75;;;31.35
70819;BMP280;58439;51.046;13.692;2023-04-22T12:41:49;99554.88;;;30.98
70819;BMP280;58439;51.046;13.692;2023-04-22T12:44:16;99560.19;;;30.94
70819;BMP280;58439;51.046;13.692;2023-04-22T12:46:44;99555.00;;;31.05
70819;BMP280;58439;51.046;13.692;2023-04-22T12:49:12;99552.53;;;31.15
70819;BMP280;58439;51.046;13.692;2023-04-22T12:51:40;99552.41;;;31.27
70819;BMP280;58439;51.046;13.692;2023-04-22T12:54:07;99540.94;;;31.69
70819;BMP280;58439;51.046;13.692;2023-04-22T12:56:37;99548.97;;;31.85
70819;BMP280;58439;51.046;13.692;2023-04-22T12:59:04;99547.75;;;31.82
70819;BMP280;58439;51.046;13.692;2023-04-22T13:01:32;99545.03;;;31.63
70819;BMP280;58439;51.046;13.692;2023-04-22T13:04:01;99545.34;;;31.58
70819;BMP280;58439;51.046;13.692;2023-04-22T13:06:29;99546.81;;;31.36
70819;BMP280;58439;51.046;13.692;2023-04-22T13:08:58;99544.59;;;31.22
70819;BMP280;58439;51.046;13.692;2023-04-22T13:11:25;99533.84;;;31.26
70819;BMP280;58439;51.046;13.692;2023-04-22T13:13:52;99539.22;;;31.61
70819;BMP280;58439;51.046;13.692;2023-04-22T13:16:20;99535.00;;;31.63
70819;BMP280;58439;51.046;13.692;2023-04-22T13:18:47;99524.69;;;31.69
70819;BMP280;58439;51.046;13.692;2023-04-22T13:21:14;99521.47;;;31.83
70819;BMP280;58439;51.046;13.692;2023-04-22T13:23:42;99530.78;;;32.05
70819;BMP280;58439;51.046;13.692;2023-04-22T13:26:10;99525.66;;;31.99
70819;BMP280;58439;51.046;13.692;2023-04-22T13:28:37;99526.09;;;31.63
70819;BMP280;58439;51.046;13.692;2023-04-22T13:31:04;99525.25;;;31.59
70819;BMP280;58439;51.046;13.692;2023-04-22T13:33:32;99523.97;;;32.14
70819;BMP280;58439;51.046;13.692;2023-04-22T13:35:59;99515.88;;;32.40
70819;BMP280;58439;51.046;13.692;2023-04-22T13:38:27;99526.53;;;32.53
70819;BMP280;58439;51.046;13.692;2023-04-22T13:40:54;99509.34;;;32.42
70819;BMP280;58439;51.046;13.692;2023-04-22T13:43:21;99512.47;;;32.44
70819;BMP280;58439;51.046;13.692;2023-04-22T13:45:48;99502.94;;;32.80
70819;BMP280;58439;51.046;13.692;2023-04-22T13:48:15;99501.56;;;33.23
70819;BMP280;58439;51.046;13.692;2023-04-22T13:50:43;99496.72;;;33.09
70819;BMP280;58439;51.046;13.692;2023-04-22T13:53:11;99506.50;;;32.34
70819;BMP280;58439;51.046;13.692;2023-04-22T13:55:39;99496.44;;;32.31
70819;BMP280;58439;51.046;13.692;2023-04-22T13:58:06;99493.00;;;32.61
70819;BMP280;58439;51.046;13.692;2023-04-22T14:00:34;99492.03;;;32.50
70819;BMP280;58439;51.046;13.692;2023-04-22T14:03:01;99494.53;;;32.62
70819;BMP280;58439;51.046;13.692;2023-04-22T14:05:28;99499.00;;;32.01
70819;BMP280;58439;51.046;13.692;2023-04-22T14:07:58;99494.44;;;31.63
70819;BMP280;58439;51.046;13.692;2023-04-22T14:10:26;99485.06;;;31.57
70819;BMP280;58439;51.046;13.692;2023-04-22T14:12:54;99477.97;;;31.91
70819;BMP280;58439;51.046;13.692;2023-04-22T14:15:22;99491.34;;;31.84
70819;BMP280;58439;51.046;13.692;2023-04-22T14:17:50;99476.44;;;32.39
70819;BMP280;58439;51.046;13.692;2023-04-22T14:20:17;99473.53;;;32.82
70819;BMP280;58439;51.046;13.692;2023-04-22T14:22:44;99468.25;;;32.62
70819;BMP280;58439;51.046;13.692;2023-04-22T14:25:12;99466.09;;;32.49
70819;BMP280;58439;51.046;13.692;2023-04-22T14:27:39;99466.00;;;32.19
70819;BMP280;58439;51.046;13.692;2023-04-22T14:30:11;99461.59;;;32.07